createdAt,value
2022-12-19T00:01:37.385Z,80499.31
2022-12-19T00:04:08.834Z,80539.91
2022-12-19T00:06:37.999Z,80507.44
2022-12-19T00:09:11.615Z,80511.50
2022-12-19T00:11:39.449Z,80503.38
2022-12-19T00:14:07.646Z,80511.50
2022-12-19T00:16:34.531Z,80495.25
2022-12-19T00:19:02.282Z,80499.31
2022-12-19T00:21:34.763Z,80507.44
2022-12-19T00:24:06.591Z,80499.31
2022-12-19T00:26:44.938Z,80507.44
2022-12-19T00:29:14.415Z,80511.50
2022-12-19T00:31:41.833Z,80511.50
2022-12-19T00:34:09.709Z,80519.59
2022-12-19T00:36:36.980Z,80527.72
2022-12-19T00:39:07.959Z,80529.75
2022-12-19T00:41:37.546Z,80531.78
2022-12-19T00:44:12.211Z,80531.78
2022-12-19T00:46:39.302Z,80527.72
2022-12-19T00:49:07.360Z,80527.72
2022-12-19T00:51:36.495Z,80533.81
2022-12-19T00:54:06.759Z,80535.84
2022-12-19T00:56:37.740Z,80535.84
2022-12-19T00:59:07.418Z,80531.78
2022-12-19T01:01:37.481Z,80531.78
2022-12-19T01:06:54.711Z,80523.66
2022-12-19T01:09:33.242Z,80535.84
2022-12-19T01:12:18.700Z,80543.97
2022-12-19T01:14:46.924Z,80539.91
2022-12-19T01:17:13.851Z,80543.97
2022-12-19T01:19:44.452Z,80535.84
2022-12-19T01:22:13.047Z,80523.66
2022-12-19T01:24:40.421Z,80523.66
2022-12-19T01:27:07.631Z,80519.59
2022-12-19T01:29:38.683Z,80511.50
2022-12-19T01:32:19.650Z,80507.44
2022-12-19T01:34:46.860Z,80513.50
2022-12-19T01:37:17.452Z,80507.44
2022-12-19T01:39:44.923Z,80499.31
2022-12-19T01:42:19.559Z,80503.38
2022-12-19T01:45:20.615Z,80513.50
2022-12-19T01:47:56.326Z,80503.38
2022-12-19T01:50:32.524Z,80501.34
2022-12-19T01:53:01.411Z,80507.44
2022-12-19T01:55:30.933Z,80507.44
2022-12-19T01:58:00.253Z,80507.44
2022-12-19T02:00:27.719Z,80519.59
2022-12-19T02:03:02.640Z,80523.66
2022-12-19T02:05:31.675Z,80523.66
2022-12-19T02:07:59.080Z,80523.66
2022-12-19T02:10:26.235Z,80519.59
2022-12-19T02:12:53.308Z,80515.53
2022-12-19T02:15:21.363Z,80515.53
2022-12-19T02:18:04.566Z,80511.50
2022-12-19T02:20:53.463Z,80517.56
2022-12-19T02:23:35.552Z,80519.59
2022-12-19T02:26:37.387Z,80519.59
2022-12-19T02:29:27.528Z,80525.69
2022-12-19T02:32:03.860Z,80533.81
2022-12-19T02:34:44.792Z,80548.00
2022-12-19T02:37:36.125Z,80552.06
2022-12-19T02:40:15.014Z,80572.38
2022-12-19T02:42:46.552Z,80580.50
2022-12-19T02:45:20.781Z,80586.56
2022-12-19T02:47:58.867Z,80584.53
2022-12-19T02:50:46.606Z,80580.50
2022-12-19T02:53:18.724Z,80576.44
2022-12-19T02:56:10.533Z,80576.44
2022-12-19T02:58:51.126Z,80582.53
2022-12-19T03:01:42.435Z,80596.72
2022-12-19T03:04:27.873Z,80608.91
2022-12-19T03:07:10.413Z,80625.13
2022-12-19T03:09:48.800Z,80637.31
2022-12-19T03:12:24.668Z,80645.44
2022-12-19T03:14:53.424Z,80649.50
2022-12-19T03:17:20.248Z,80641.38
2022-12-19T03:19:47.797Z,80653.56
2022-12-19T03:22:14.883Z,80657.59
2022-12-19T03:24:42.135Z,80665.72
2022-12-19T03:27:13.625Z,80669.78
2022-12-19T03:29:55.457Z,80686.03
2022-12-19T03:32:24.529Z,80702.25
2022-12-19T03:35:05.918Z,80714.44
2022-12-19T03:37:37.862Z,80706.31
2022-12-19T03:40:10.856Z,80710.38
2022-12-19T03:42:59.685Z,80714.44
2022-12-19T03:45:57.934Z,80722.56
2022-12-19T03:48:35.409Z,80722.56
2022-12-19T03:51:31.646Z,80734.72
2022-12-19T03:54:21.748Z,80734.72
2022-12-19T03:57:01.405Z,80744.88
2022-12-19T03:59:46.576Z,80738.78
2022-12-19T04:02:16.774Z,80742.84
2022-12-19T04:04:47.244Z,80746.91
2022-12-19T04:07:15.915Z,80746.91
2022-12-19T04:09:46.067Z,80742.84
2022-12-19T04:12:19.880Z,80750.97
2022-12-19T04:14:48.334Z,80755.03
2022-12-19T04:17:39.440Z,80759.09
2022-12-19T04:20:21.089Z,80761.13
2022-12-19T04:23:06.743Z,80763.16
2022-12-19T04:25:40.355Z,80767.19
2022-12-19T04:28:17.246Z,80771.25
2022-12-19T04:30:45.264Z,80769.22
2022-12-19T04:33:12.456Z,80771.25
2022-12-19T04:35:39.435Z,80771.25
2022-12-19T04:38:06.764Z,80781.41
2022-12-19T04:40:40.852Z,80783.44
2022-12-19T04:43:09.102Z,80783.44
2022-12-19T04:45:36.258Z,80787.50
2022-12-19T04:48:04.266Z,80789.53
2022-12-19T04:50:33.126Z,80795.63
2022-12-19T04:53:00.826Z,80799.69
2022-12-19T04:55:27.653Z,80799.69
2022-12-19T04:57:54.821Z,80807.78
2022-12-19T05:00:21.824Z,80803.72
2022-12-19T05:02:49.116Z,80795.63
2022-12-19T05:05:18.154Z,80789.53
2022-12-19T05:07:45.355Z,80795.63
2022-12-19T05:10:12.149Z,80803.72
2022-12-19T05:12:39.315Z,80807.78
2022-12-19T05:15:06.771Z,80815.91
2022-12-19T05:17:33.944Z,80815.91
2022-12-19T05:20:00.837Z,80815.91
2022-12-19T05:22:28.160Z,80815.91
2022-12-19T05:24:55.006Z,80815.91
2022-12-19T05:27:22.310Z,80824.03
2022-12-19T05:29:49.165Z,80817.94
2022-12-19T05:32:16.582Z,80832.16
2022-12-19T05:34:43.464Z,80836.22
2022-12-19T05:37:10.554Z,80836.22
2022-12-19T05:39:37.575Z,80844.31
2022-12-19T05:42:07.350Z,80850.41
2022-12-19T05:44:37.795Z,80860.56
2022-12-19T05:47:04.900Z,80856.50
2022-12-19T05:49:31.959Z,80848.38
2022-12-19T05:51:59.442Z,80844.31
2022-12-19T05:54:26.539Z,80848.38
2022-12-19T05:56:53.709Z,80840.25
2022-12-19T05:59:20.618Z,80840.25
2022-12-19T06:01:47.991Z,80844.31
2022-12-19T06:04:15.101Z,80852.44
2022-12-19T06:06:42.636Z,80852.44
2022-12-19T06:09:28.184Z,80858.53
2022-12-19T06:11:55.312Z,80864.63
2022-12-19T06:14:22.743Z,80872.75
2022-12-19T06:16:50.655Z,80866.66
2022-12-19T06:19:20.342Z,80870.72
2022-12-19T06:21:48.765Z,80860.56
2022-12-19T06:24:16.355Z,80848.38
2022-12-19T06:26:44.177Z,80856.50
2022-12-19T06:29:11.042Z,80848.38
2022-12-19T06:31:38.256Z,80848.38
2022-12-19T06:34:05.462Z,80848.38
2022-12-19T06:36:33.073Z,80836.22
2022-12-19T06:38:59.994Z,80828.09
2022-12-19T06:41:46.422Z,80832.16
2022-12-19T06:44:14.998Z,80824.03
2022-12-19T06:46:43.237Z,80824.03
2022-12-19T06:49:10.633Z,80824.03
2022-12-19T06:51:37.919Z,80819.97
2022-12-19T06:54:05.458Z,80826.06
2022-12-19T06:56:37.197Z,80811.84
2022-12-19T06:59:05.166Z,80795.63
2022-12-19T07:01:49.664Z,80785.47
2022-12-19T07:04:41.633Z,80787.50
2022-12-19T07:07:09.234Z,80791.56
2022-12-19T07:09:36.768Z,80787.50
2022-12-19T07:12:04.709Z,80783.44
2022-12-19T07:14:32.755Z,80775.31
2022-12-19T07:17:02.928Z,80783.44
2022-12-19T07:19:32.340Z,80811.84
2022-12-19T07:22:02.124Z,80779.38
2022-12-19T07:24:29.929Z,80775.31
2022-12-19T07:26:58.072Z,80779.38
2022-12-19T07:29:25.541Z,80767.19
2022-12-19T07:31:52.782Z,80771.25
2022-12-19T07:34:20.486Z,80767.19
2022-12-19T07:36:48.205Z,80769.22
2022-12-19T07:39:15.556Z,80755.03
2022-12-19T07:41:42.852Z,80746.91
2022-12-19T07:44:09.839Z,80746.91
2022-12-19T07:46:37.013Z,80742.84
2022-12-19T07:49:03.948Z,80746.91
2022-12-19T07:51:31.175Z,80724.59
2022-12-19T07:53:58.312Z,80722.56
2022-12-19T07:56:26.847Z,80714.44
2022-12-19T07:58:53.819Z,80702.25
2022-12-19T08:01:21.072Z,80698.19
2022-12-19T08:03:47.964Z,80704.28
2022-12-19T08:06:15.505Z,80702.25
2022-12-19T08:08:42.368Z,80702.25
2022-12-19T08:11:18.094Z,80706.31
2022-12-19T08:13:46.935Z,80706.31
2022-12-19T08:16:15.150Z,80704.28
2022-12-19T08:18:42.288Z,80694.13
2022-12-19T08:21:10.033Z,80702.25
2022-12-19T08:23:38.796Z,80698.19
2022-12-19T08:26:09.007Z,80694.13
2022-12-19T08:28:37.176Z,80690.09
2022-12-19T08:31:07.497Z,80673.84
2022-12-19T08:33:34.749Z,80671.81
2022-12-19T08:36:10.254Z,80663.69
2022-12-19T08:38:37.822Z,80649.50
2022-12-19T08:41:05.171Z,80639.34
2022-12-19T08:43:32.398Z,80637.31
2022-12-19T08:45:59.929Z,80608.91
2022-12-19T08:48:27.370Z,80604.84
2022-12-19T08:50:56.856Z,80596.72
2022-12-19T08:53:26.596Z,80574.41
2022-12-19T08:55:58.817Z,80562.22
2022-12-19T08:58:27.543Z,80543.97
2022-12-19T09:01:01.684Z,80537.88
2022-12-19T09:03:42.734Z,80531.78
2022-12-19T09:06:20.379Z,80505.41
2022-12-19T09:09:06.118Z,80505.41
2022-12-19T09:11:36.108Z,80507.44
2022-12-19T09:14:14.164Z,80491.19
2022-12-19T09:16:42.824Z,80479.00
2022-12-19T09:19:15.421Z,80470.91
2022-12-19T09:21:42.862Z,80466.84
2022-12-19T09:24:10.392Z,80464.81
2022-12-19T09:26:42.253Z,80454.66
2022-12-19T09:29:20.769Z,80434.38
2022-12-19T09:31:55.699Z,80424.22
2022-12-19T09:34:36.770Z,80436.41
2022-12-19T09:37:15.811Z,80408.00
2022-12-19T09:39:48.091Z,80397.84
2022-12-19T09:42:31.594Z,80410.03
2022-12-19T09:45:33.111Z,80389.72
2022-12-19T09:48:01.733Z,80371.47
2022-12-19T09:51:09.676Z,80375.53
2022-12-19T09:54:02.422Z,80367.41
2022-12-19T09:56:33.998Z,80361.31
2022-12-19T09:59:31.561Z,80345.06
2022-12-19T10:02:47.677Z,80345.06
2022-12-19T10:07:06.845Z,80316.66
2022-12-19T10:09:22.312Z,80304.50
2022-12-19T10:12:45.819Z,80308.56
2022-12-19T10:15:30.385Z,80288.25
2022-12-19T10:18:16.139Z,80282.16
2022-12-19T10:21:04.082Z,80267.97
2022-12-19T10:23:57.794Z,80247.69
2022-12-19T10:26:50.630Z,80235.50
2022-12-19T10:29:26.828Z,80221.28
2022-12-19T10:32:14.255Z,80205.06
2022-12-19T10:34:44.903Z,80207.09
2022-12-19T10:37:48.927Z,80194.91
2022-12-19T10:40:22.254Z,80178.69
2022-12-19T10:43:11.489Z,80162.44
2022-12-19T10:45:48.197Z,80156.34
2022-12-19T10:48:22.022Z,80162.44
2022-12-19T10:50:55.021Z,80129.97
2022-12-19T10:53:30.364Z,80105.63
2022-12-19T10:56:33.219Z,80093.44
2022-12-19T10:59:05.220Z,80081.28
2022-12-19T11:01:38.216Z,80065.03
2022-12-19T11:04:29.525Z,80054.91
2022-12-19T11:07:03.542Z,80026.50
2022-12-19T11:09:39.570Z,80020.41
2022-12-19T11:13:16.577Z,80020.41
2022-12-19T11:19:39.694Z,80004.16
2022-12-19T11:27:34.408Z,80020.41
2022-12-19T11:29:18.198Z,80008.22
2022-12-19T11:29:47.128Z,80002.13
2022-12-19T11:30:45.738Z,79987.94
2022-12-19T11:32:44.484Z,79971.72
2022-12-19T11:35:24.368Z,79963.59
2022-12-19T11:37:56.263Z,79959.53
2022-12-19T11:40:48.616Z,79955.47
2022-12-19T11:43:44.640Z,79953.44
2022-12-19T11:46:22.456Z,79943.31
2022-12-19T11:49:09.032Z,79939.25
2022-12-19T11:52:09.112Z,79935.19
2022-12-19T11:55:17.172Z,79931.13
2022-12-19T11:57:45.831Z,79923.00
2022-12-19T12:00:21.662Z,79918.94
2022-12-19T12:03:04.651Z,79923.00
2022-12-19T12:05:35.045Z,79933.16
2022-12-19T12:10:07.711Z,79935.19
2022-12-19T12:16:13.595Z,79935.19
2022-12-19T12:22:49.947Z,79931.13
2022-12-19T12:24:06.254Z,79923.00
2022-12-19T12:31:39.253Z,79900.69
2022-12-19T12:31:41.757Z,79914.88
2022-12-19T12:31:44.252Z,79914.88
2022-12-19T12:31:46.586Z,79902.72
2022-12-19T12:35:51.824Z,79920.97
2022-12-19T12:39:33.345Z,79910.84
2022-12-19T12:42:31.153Z,79904.75
2022-12-19T12:45:01.059Z,79894.59
2022-12-19T12:47:29.120Z,79898.66
2022-12-19T12:50:03.296Z,79906.78
2022-12-19T12:52:36.104Z,79902.72
2022-12-19T12:55:06.369Z,79914.88
2022-12-19T12:57:36.704Z,79931.13
2022-12-19T13:00:28.977Z,79918.94
2022-12-19T13:03:13.839Z,79923.00
2022-12-19T13:06:06.404Z,79933.16
2022-12-19T13:08:39.419Z,79947.34
2022-12-19T13:11:37.556Z,79959.53
2022-12-19T13:14:26.032Z,79967.66
2022-12-19T13:16:54.258Z,79983.88
2022-12-19T13:19:28.901Z,79977.78
2022-12-19T13:22:07.557Z,79967.66
2022-12-19T13:24:55.307Z,79955.47
2022-12-19T13:27:22.726Z,79943.31
2022-12-19T13:30:12.653Z,79939.25
2022-12-19T13:32:39.876Z,79947.34
2022-12-19T13:36:15.499Z,79953.44
2022-12-19T13:39:48.075Z,79961.56
2022-12-19T13:40:58.045Z,79967.66
2022-12-19T13:43:47.779Z,79963.59
2022-12-19T13:46:46.037Z,79979.81
2022-12-19T13:49:31.852Z,79971.72
2022-12-19T13:52:03.631Z,79971.72
2022-12-19T13:54:36.552Z,79983.88
2022-12-19T13:57:09.112Z,79983.88
2022-12-19T13:59:39.884Z,79987.94
2022-12-19T14:02:16.070Z,79967.66
2022-12-19T14:04:45.419Z,79975.75
2022-12-19T14:07:36.486Z,79973.72
2022-12-19T14:11:41.106Z,79977.78
2022-12-19T14:13:45.073Z,79971.72
2022-12-19T14:16:00.880Z,79965.63
2022-12-19T14:18:43.033Z,79963.59
2022-12-19T14:22:06.316Z,79951.41
2022-12-19T14:24:09.463Z,79943.31
2022-12-19T14:28:24.278Z,79947.34
2022-12-19T14:30:19.862Z,79935.19
2022-12-19T14:33:39.717Z,79929.09
2022-12-19T14:36:07.422Z,79931.13
2022-12-19T14:39:19.619Z,79931.13
2022-12-19T14:41:08.397Z,79918.94
2022-12-19T14:44:00.581Z,79914.88
2022-12-19T14:52:51.779Z,79918.94
2022-12-19T14:54:09.567Z,79906.78
2022-12-19T14:54:30.698Z,79890.53
2022-12-19T14:56:03.897Z,79896.63
2022-12-19T14:58:52.466Z,79894.59
2022-12-19T15:01:28.997Z,79890.53
2022-12-19T15:04:53.370Z,79931.13
2022-12-19T15:07:11.952Z,79890.53
2022-12-19T15:11:04.629Z,79882.44
2022-12-19T15:14:57.649Z,79886.47
2022-12-19T15:16:04.688Z,79880.41
2022-12-19T15:18:42.855Z,79862.13
2022-12-19T15:21:13.296Z,79845.91
2022-12-19T15:23:41.340Z,79841.84
2022-12-19T15:26:14.319Z,79845.91
2022-12-19T15:28:52.777Z,79845.91
2022-12-19T15:31:38.376Z,79845.91
2022-12-19T15:34:34.945Z,79849.97
2022-12-19T15:37:03.979Z,79841.84
2022-12-19T15:39:31.299Z,79829.66
2022-12-19T15:42:00.374Z,79821.56
2022-12-19T15:44:32.250Z,79813.44
2022-12-19T15:47:00.819Z,79801.25
2022-12-19T15:49:28.360Z,79803.28
2022-12-19T15:51:55.468Z,79805.31
2022-12-19T15:54:47.985Z,79795.19
2022-12-19T15:57:24.354Z,79793.16
2022-12-19T15:59:52.118Z,79803.28
2022-12-19T16:02:24.204Z,79805.31
2022-12-19T16:04:55.687Z,79791.13
2022-12-19T16:07:29.244Z,79785.03
2022-12-19T16:09:56.397Z,79764.75
2022-12-19T16:12:39.179Z,79750.53
2022-12-19T16:15:13.942Z,79740.41
2022-12-19T16:17:40.789Z,79732.28
2022-12-19T16:20:39.580Z,79740.41
2022-12-19T16:23:08.063Z,79736.34
2022-12-19T16:25:42.316Z,79740.41
2022-12-19T16:28:17.947Z,79730.25
2022-12-19T16:30:45.323Z,79724.16
2022-12-19T16:33:19.994Z,79707.94
2022-12-19T16:36:04.097Z,79712.00
2022-12-19T16:38:33.462Z,79720.09
2022-12-19T16:41:01.783Z,79720.09
2022-12-19T16:43:33.474Z,79716.03
2022-12-19T16:46:01.779Z,79716.03
2022-12-19T16:48:29.943Z,79712.00
2022-12-19T16:50:59.024Z,79716.03
2022-12-19T16:53:26.018Z,79707.94
2022-12-19T16:55:55.679Z,79712.00
2022-12-19T16:58:26.350Z,79703.88
2022-12-19T17:00:55.212Z,79691.69
2022-12-19T17:03:37.271Z,79687.66
2022-12-19T17:06:04.860Z,79675.47
2022-12-19T17:08:32.511Z,79675.47
2022-12-19T17:10:59.844Z,79665.31
2022-12-19T17:13:26.941Z,79661.28
2022-12-19T17:15:57.076Z,79643.00
2022-12-19T17:18:30.968Z,79643.00
2022-12-19T17:20:58.360Z,79634.88
2022-12-19T17:23:26.579Z,79626.78
2022-12-19T17:25:55.057Z,79630.84
2022-12-19T17:28:22.586Z,79628.81
2022-12-19T17:30:57.511Z,79626.78
2022-12-19T17:33:32.970Z,79610.53
2022-12-19T17:36:04.432Z,79604.47
2022-12-19T17:38:31.576Z,79598.38
2022-12-19T17:40:59.363Z,79590.25
2022-12-19T17:43:26.464Z,79590.25
2022-12-19T17:45:53.938Z,79588.22
2022-12-19T17:48:23.612Z,79590.25
2022-12-19T17:50:51.273Z,79586.19
2022-12-19T17:53:18.250Z,79582.13
2022-12-19T17:55:45.618Z,79561.84
2022-12-19T17:58:13.038Z,79569.97
2022-12-19T18:00:41.158Z,79561.84
2022-12-19T18:03:26.775Z,79561.84
2022-12-19T18:05:55.487Z,79547.66
2022-12-19T18:08:31.348Z,79547.66
2022-12-19T18:11:04.208Z,79543.59
2022-12-19T18:13:32.032Z,79545.63
2022-12-19T18:16:03.687Z,79541.56
2022-12-19T18:18:34.739Z,79541.56
2022-12-19T18:21:03.404Z,79537.50
2022-12-19T18:23:30.929Z,79529.41
2022-12-19T18:26:01.840Z,79521.28
2022-12-19T18:28:29.672Z,79529.41
2022-12-19T18:31:28.112Z,79517.22
2022-12-19T18:34:00.841Z,79498.97
2022-12-19T18:36:40.304Z,79496.94
2022-12-19T18:39:25.246Z,79494.91
2022-12-19T18:41:53.600Z,79488.81
2022-12-19T18:44:22.622Z,79482.72
2022-12-19T18:46:51.523Z,79478.66
2022-12-19T18:49:19.614Z,79476.66
2022-12-19T18:52:06.598Z,79472.59
2022-12-19T18:54:33.892Z,79464.47
2022-12-19T18:57:00.996Z,79458.38
2022-12-19T18:59:28.313Z,79452.28
2022-12-19T19:01:55.914Z,79452.28
2022-12-19T19:04:23.252Z,79444.19
2022-12-19T19:06:52.628Z,79444.19
2022-12-19T19:09:21.459Z,79427.94
2022-12-19T19:12:16.517Z,79419.84
2022-12-19T19:14:43.820Z,79403.59
2022-12-19T19:17:24.274Z,79401.56
2022-12-19T19:19:51.563Z,79387.38
2022-12-19T19:22:18.416Z,79379.25
2022-12-19T19:24:45.608Z,79375.19
2022-12-19T19:27:12.565Z,79369.13
2022-12-19T19:29:40.107Z,79369.13
2022-12-19T19:32:07.176Z,79358.97
2022-12-19T19:34:37.461Z,79354.91
2022-12-19T19:37:08.046Z,79344.78
2022-12-19T19:39:35.411Z,79346.81
2022-12-19T19:42:02.916Z,79346.81
2022-12-19T19:44:30.273Z,79330.56
2022-12-19T19:46:57.407Z,79322.47
2022-12-19T19:49:24.715Z,79322.47
2022-12-19T19:51:54.343Z,79310.28
2022-12-19T19:54:25.806Z,79306.22
2022-12-19T19:56:52.764Z,79300.13
2022-12-19T19:59:21.378Z,79294.06
2022-12-19T20:01:48.623Z,79294.06
2022-12-19T20:04:15.851Z,79302.16
2022-12-19T20:06:42.833Z,79298.13
2022-12-19T20:09:10.072Z,79294.06
2022-12-19T20:11:37.022Z,79290.00
2022-12-19T20:14:04.612Z,79279.84
2022-12-19T20:16:31.647Z,79273.78
2022-12-19T20:18:59.981Z,79267.69
2022-12-19T20:21:27.543Z,79257.53
2022-12-19T20:23:54.828Z,79249.41
2022-12-19T20:26:22.112Z,79249.41
2022-12-19T20:28:51.390Z,79241.31
2022-12-19T20:31:19.423Z,79225.09
2022-12-19T20:33:48.223Z,79223.06
2022-12-19T20:36:16.095Z,79216.97
2022-12-19T20:38:43.509Z,79204.78
2022-12-19T20:41:10.497Z,79200.72
2022-12-19T20:43:38.748Z,79188.56
2022-12-19T20:46:17.990Z,79192.63
2022-12-19T20:48:46.641Z,79192.63
2022-12-19T20:51:14.752Z,79174.38
2022-12-19T20:53:42.836Z,79172.34
2022-12-19T20:56:13.257Z,79164.22
2022-12-19T20:58:40.419Z,79164.22
2022-12-19T21:01:16.252Z,79158.13
2022-12-19T21:03:45.030Z,79141.91
2022-12-19T21:06:13.673Z,79139.88
2022-12-19T21:08:41.344Z,79139.88
2022-12-19T21:11:09.489Z,79131.75
2022-12-19T21:13:38.049Z,79127.72
2022-12-19T21:16:08.587Z,79121.63
2022-12-19T21:18:41.046Z,79119.59
2022-12-19T21:21:11.316Z,79115.53
2022-12-19T21:23:38.445Z,79111.47
2022-12-19T21:26:05.727Z,79105.38
2022-12-19T21:28:33.325Z,79101.34
2022-12-19T21:31:03.051Z,79097.28
2022-12-19T21:33:30.646Z,79091.19
2022-12-19T21:35:57.865Z,79079.03
2022-12-19T21:38:25.203Z,79070.91
2022-12-19T21:40:52.060Z,79066.84
2022-12-19T21:43:19.381Z,79056.72
2022-12-19T21:45:46.497Z,79050.63
2022-12-19T21:48:13.635Z,79052.66
2022-12-19T21:50:40.615Z,79042.50
2022-12-19T21:53:07.741Z,79030.34
2022-12-19T21:55:34.564Z,79026.28
2022-12-19T21:58:02.036Z,79022.22
2022-12-19T22:00:29.103Z,79014.09
2022-12-19T22:03:13.468Z,79001.94
2022-12-19T22:05:41.577Z,78989.75
2022-12-19T22:08:09.765Z,78985.72
2022-12-19T22:10:39.595Z,78979.63
2022-12-19T22:13:06.707Z,78973.53
2022-12-19T22:15:35.626Z,78977.59
2022-12-19T22:18:21.634Z,78961.38
2022-12-19T22:20:49.103Z,78953.25
2022-12-19T22:23:15.895Z,78953.25
2022-12-19T22:25:43.081Z,78957.31
2022-12-19T22:28:10.102Z,78949.19
2022-12-19T22:30:37.278Z,78953.25
2022-12-19T22:33:04.560Z,78941.06
2022-12-19T22:35:33.893Z,78937.03
2022-12-19T22:38:00.782Z,78924.84
2022-12-19T22:40:27.879Z,78916.75
2022-12-19T22:42:54.753Z,78916.75
2022-12-19T22:45:21.907Z,78912.69
2022-12-19T22:47:48.796Z,78904.56
2022-12-19T22:50:16.003Z,78892.41
2022-12-19T22:52:42.933Z,78888.34
2022-12-19T22:55:10.293Z,78876.16
2022-12-19T22:57:37.096Z,78874.13
2022-12-19T23:00:17.022Z,78876.16
2022-12-19T23:02:44.052Z,78864.00
2022-12-19T23:05:11.475Z,78876.16
2022-12-19T23:07:38.397Z,78864.00
2022-12-19T23:10:06.461Z,78864.00
2022-12-19T23:12:33.329Z,78851.81
2022-12-19T23:15:00.490Z,78835.59
2022-12-19T23:17:27.309Z,78827.47
2022-12-19T23:19:54.539Z,78831.53
2022-12-19T23:22:21.830Z,78823.44
2022-12-19T23:24:49.205Z,78817.34
2022-12-19T23:27:16.392Z,78811.25
2022-12-19T23:29:43.609Z,78801.13
2022-12-19T23:32:10.726Z,78790.97
2022-12-19T23:34:37.962Z,78786.91
2022-12-19T23:37:12.789Z,78786.91
2022-12-19T23:39:40.193Z,78786.91
2022-12-19T23:42:07.317Z,78786.91
2022-12-19T23:44:34.549Z,78780.84
2022-12-19T23:47:03.880Z,78774.75
2022-12-19T23:49:33.323Z,78766.63
2022-12-19T23:52:00.160Z,78766.63
2022-12-19T23:54:27.386Z,78760.56
2022-12-19T23:56:54.280Z,78754.47
2022-12-19T23:59:21.496Z,78746.34
